createdAt,value
2022-11-29T00:01:31.608Z,5.50
2022-11-29T00:04:00.843Z,5.29
2022-11-29T00:06:29.904Z,5.44
2022-11-29T00:08:59.045Z,5.28
2022-11-29T00:11:29.044Z,5.51
2022-11-29T00:13:56.303Z,5.56
2022-11-29T00:16:23.368Z,5.41
2022-11-29T00:18:50.543Z,5.15
2022-11-29T00:21:19.063Z,5.34
2022-11-29T00:23:46.143Z,5.38
2022-11-29T00:26:13.203Z,5.21
2022-11-29T00:28:40.363Z,5.41
2022-11-29T00:31:15.226Z,5.67
2022-11-29T00:33:42.464Z,5.65
2022-11-29T00:36:10.243Z,6.16
2022-11-29T00:38:39.244Z,5.84
2022-11-29T00:41:06.769Z,5.60
2022-11-29T00:43:34.365Z,5.66
2022-11-29T00:46:02.580Z,5.83
2022-11-29T00:48:30.304Z,5.45
2022-11-29T00:50:57.404Z,5.46
2022-11-29T00:53:25.185Z,5.63
2022-11-29T00:55:54.463Z,5.39
2022-11-29T00:58:22.304Z,5.29
2022-11-29T01:00:49.989Z,5.33
2022-11-29T01:03:17.675Z,5.37
2022-11-29T01:05:45.515Z,4.91
2022-11-29T01:08:13.336Z,5.28
2022-11-29T01:10:40.576Z,5.07
2022-11-29T01:13:09.589Z,5.07
2022-11-29T01:15:36.888Z,5.11
2022-11-29T01:18:04.155Z,5.22
2022-11-29T01:20:31.198Z,5.08
2022-11-29T01:22:58.895Z,5.64
2022-11-29T01:25:26.235Z,5.25
2022-11-29T01:30:39.710Z,5.37
2022-11-29T01:33:06.978Z,5.24
2022-11-29T01:35:34.092Z,5.11
2022-11-29T01:38:01.191Z,5.17
2022-11-29T01:40:28.290Z,4.90
2022-11-29T01:42:55.317Z,4.37
2022-11-29T01:45:25.601Z,3.01
2022-11-29T01:47:58.141Z,2.89
2022-11-29T01:50:25.561Z,3.06
2022-11-29T01:52:52.861Z,3.02
2022-11-29T01:55:20.480Z,3.33
2022-11-29T02:00:32.481Z,3.51
2022-11-29T02:03:08.541Z,3.96
2022-11-29T02:05:39.580Z,3.73
2022-11-29T02:08:09.703Z,3.65
2022-11-29T02:10:53.000Z,3.30
2022-11-29T02:13:33.601Z,3.62
2022-11-29T02:16:10.149Z,3.41
2022-11-29T02:18:50.651Z,3.46
2022-11-29T02:21:35.197Z,3.52
2022-11-29T02:24:35.177Z,3.34
2022-11-29T02:27:41.838Z,3.24
2022-11-29T02:30:37.019Z,3.32
2022-11-29T02:33:37.540Z,3.27
2022-11-29T02:36:30.336Z,3.16
2022-11-29T02:39:24.758Z,3.32
2022-11-29T02:42:13.957Z,3.23
2022-11-29T02:45:07.538Z,3.46
2022-11-29T02:47:52.977Z,3.21
2022-11-29T02:50:37.800Z,3.09
2022-11-29T02:53:15.897Z,3.46
2022-11-29T02:55:55.537Z,3.45
2022-11-29T02:58:31.259Z,3.34
2022-11-29T03:01:08.170Z,3.34
2022-11-29T03:03:43.672Z,3.36
2022-11-29T03:06:23.543Z,3.45
2022-11-29T03:09:01.399Z,3.16
2022-11-29T03:11:39.493Z,3.54
2022-11-29T03:14:17.533Z,3.49
2022-11-29T03:16:59.285Z,3.41
2022-11-29T03:19:46.962Z,3.32
2022-11-29T03:22:31.661Z,3.48
2022-11-29T03:25:08.147Z,3.44
2022-11-29T03:27:42.495Z,3.34
2022-11-29T03:30:13.395Z,3.39
2022-11-29T03:32:51.056Z,3.22
2022-11-29T03:35:29.755Z,3.04
2022-11-29T03:38:09.552Z,3.49
2022-11-29T03:40:49.411Z,3.37
2022-11-29T03:43:22.371Z,3.43
2022-11-29T03:45:57.671Z,3.55
2022-11-29T03:48:34.138Z,3.44
2022-11-29T03:51:08.438Z,3.43
2022-11-29T03:53:47.699Z,3.51
2022-11-29T03:56:30.299Z,3.43
2022-11-29T03:59:11.324Z,3.40
2022-11-29T04:02:02.719Z,3.40
2022-11-29T04:05:04.637Z,3.53
2022-11-29T04:07:47.836Z,3.42
2022-11-29T04:10:48.380Z,3.39
2022-11-29T04:13:37.499Z,3.67
2022-11-29T04:16:45.432Z,3.54
2022-11-29T04:19:40.722Z,3.68
2022-11-29T04:22:28.384Z,3.54
2022-11-29T04:25:39.882Z,3.46
2022-11-29T04:28:39.662Z,3.39
2022-11-29T04:31:22.079Z,3.48
2022-11-29T04:34:24.521Z,3.26
2022-11-29T04:37:20.120Z,3.35
2022-11-29T04:40:23.063Z,3.44
2022-11-29T04:43:15.180Z,3.43
2022-11-29T04:46:17.929Z,3.34
2022-11-29T04:49:17.365Z,3.47
2022-11-29T04:52:15.479Z,3.27
2022-11-29T04:54:52.220Z,3.19
2022-11-29T04:57:32.999Z,3.00
2022-11-29T05:00:06.486Z,3.23
2022-11-29T05:02:43.459Z,3.30
2022-11-29T05:05:24.931Z,3.24
2022-11-29T05:08:06.093Z,2.98
2022-11-29T05:10:44.052Z,3.13
2022-11-29T05:13:31.753Z,2.85
2022-11-29T05:16:21.390Z,3.13
2022-11-29T05:19:19.022Z,3.03
2022-11-29T05:22:02.281Z,3.13
2022-11-29T05:24:47.153Z,2.94
2022-11-29T05:27:23.381Z,3.07
2022-11-29T05:29:59.503Z,2.96
2022-11-29T05:32:36.382Z,3.10
2022-11-29T05:35:36.562Z,2.89
2022-11-29T05:38:19.083Z,2.94
2022-11-29T05:41:02.814Z,2.89
2022-11-29T05:43:54.438Z,2.98
2022-11-29T05:46:31.011Z,2.72
2022-11-29T05:49:15.619Z,2.87
2022-11-29T05:51:53.818Z,2.93
2022-11-29T05:54:31.417Z,3.11
2022-11-29T05:57:12.068Z,3.18
2022-11-29T05:59:41.270Z,3.30
2022-11-29T06:02:28.362Z,3.24
2022-11-29T06:05:09.836Z,3.25
2022-11-29T06:07:45.725Z,3.23
2022-11-29T06:10:16.471Z,2.97
2022-11-29T06:12:56.599Z,3.21
2022-11-29T06:15:58.016Z,3.12
2022-11-29T06:18:46.398Z,2.97
2022-11-29T06:21:29.673Z,3.20
2022-11-29T06:24:25.556Z,3.16
2022-11-29T06:27:26.993Z,3.46
2022-11-29T06:30:03.687Z,3.25
2022-11-29T06:32:39.767Z,3.19
2022-11-29T06:35:19.970Z,3.29
2022-11-29T06:37:53.955Z,3.04
2022-11-29T06:40:22.122Z,3.26
2022-11-29T06:42:49.200Z,2.95
2022-11-29T06:45:17.364Z,3.05
2022-11-29T06:47:51.010Z,2.98
2022-11-29T06:50:33.715Z,2.90
2022-11-29T06:53:15.071Z,3.14
2022-11-29T06:55:54.631Z,3.28
2022-11-29T06:58:44.629Z,3.36
2022-11-29T07:01:23.728Z,3.19
2022-11-29T07:04:10.856Z,3.68
2022-11-29T07:06:38.610Z,3.38
2022-11-29T07:09:14.069Z,3.49
2022-11-29T07:11:42.050Z,3.31
2022-11-29T07:14:10.249Z,3.57
2022-11-29T07:16:50.186Z,3.38
2022-11-29T07:19:32.085Z,3.29
2022-11-29T07:22:08.188Z,3.15
2022-11-29T07:24:57.211Z,2.94
2022-11-29T07:27:33.449Z,2.79
2022-11-29T07:30:12.848Z,2.85
2022-11-29T07:33:00.294Z,2.65
2022-11-29T07:35:38.173Z,2.86
2022-11-29T07:38:16.867Z,2.40
2022-11-29T07:40:57.288Z,2.59
2022-11-29T07:43:40.548Z,2.28
2022-11-29T07:46:07.616Z,2.17
2022-11-29T07:48:34.719Z,2.12
2022-11-29T07:51:02.241Z,2.32
2022-11-29T07:53:29.339Z,2.24
2022-11-29T07:55:58.801Z,2.49
2022-11-29T07:58:26.041Z,2.08
2022-11-29T08:00:53.401Z,2.24
2022-11-29T08:03:20.536Z,2.01
2022-11-29T08:05:48.516Z,2.18
2022-11-29T08:08:16.097Z,2.58
2022-11-29T08:10:44.592Z,2.26
2022-11-29T08:13:13.835Z,2.00
2022-11-29T08:15:44.996Z,2.07
2022-11-29T08:18:12.437Z,2.11
2022-11-29T08:20:39.499Z,2.25
2022-11-29T08:23:06.695Z,2.29
2022-11-29T08:25:33.779Z,2.32
2022-11-29T08:28:04.817Z,2.11
2022-11-29T08:30:33.623Z,2.15
2022-11-29T08:33:00.766Z,2.19
2022-11-29T08:35:28.907Z,2.05
2022-11-29T08:37:56.014Z,2.61
2022-11-29T08:40:23.517Z,2.42
2022-11-29T08:42:50.621Z,2.44
2022-11-29T08:45:17.838Z,2.37
2022-11-29T08:47:46.342Z,2.54
2022-11-29T08:50:18.199Z,2.69
2022-11-29T08:52:48.164Z,2.94
2022-11-29T08:55:15.457Z,2.92
2022-11-29T08:57:43.013Z,2.76
2022-11-29T09:00:12.535Z,2.93
2022-11-29T09:02:40.658Z,2.63
2022-11-29T09:05:11.262Z,2.59
2022-11-29T09:07:39.387Z,2.71
2022-11-29T09:10:08.875Z,2.42
2022-11-29T09:12:37.274Z,2.50
2022-11-29T09:15:05.786Z,2.57
2022-11-29T09:17:33.188Z,2.36
2022-11-29T09:20:00.453Z,2.19
2022-11-29T09:22:29.199Z,2.49
2022-11-29T09:24:56.270Z,2.42
2022-11-29T09:27:23.523Z,2.25
2022-11-29T09:29:52.086Z,2.45
2022-11-29T09:32:19.144Z,2.32
2022-11-29T09:34:46.488Z,2.27
2022-11-29T09:37:13.847Z,2.19
2022-11-29T09:39:42.376Z,2.14
2022-11-29T09:42:35.867Z,2.41
2022-11-29T09:45:09.688Z,2.63
2022-11-29T09:48:06.725Z,2.69
2022-11-29T09:50:35.949Z,2.55
2022-11-29T09:53:22.465Z,2.35
2022-11-29T09:56:02.749Z,2.48
2022-11-29T09:58:37.885Z,2.23
2022-11-29T10:01:10.357Z,1.99
2022-11-29T10:03:44.062Z,1.93
2022-11-29T10:06:21.579Z,1.76
2022-11-29T10:08:57.161Z,1.50
2022-11-29T10:11:33.017Z,1.50
2022-11-29T10:14:11.186Z,1.69
2022-11-29T10:16:47.007Z,1.52
2022-11-29T10:19:27.867Z,1.72
2022-11-29T10:22:02.768Z,1.86
2022-11-29T10:24:33.445Z,1.43
2022-11-29T10:27:03.131Z,1.36
2022-11-29T10:29:30.366Z,1.50
2022-11-29T10:31:58.785Z,1.43
2022-11-29T10:34:28.405Z,1.53
2022-11-29T10:36:58.366Z,1.42
2022-11-29T10:39:37.725Z,1.37
2022-11-29T10:42:15.307Z,1.39
2022-11-29T10:44:42.726Z,1.32
2022-11-29T10:47:11.171Z,1.40
2022-11-29T10:49:38.747Z,1.49
2022-11-29T10:52:06.066Z,1.40
2022-11-29T10:54:40.134Z,1.35
2022-11-29T10:57:14.765Z,1.46
2022-11-29T10:59:59.605Z,1.34
2022-11-29T11:02:27.025Z,1.18
2022-11-29T11:04:54.810Z,1.27
2022-11-29T11:07:25.537Z,1.12
2022-11-29T11:09:56.812Z,1.44
2022-11-29T11:12:29.525Z,1.30
2022-11-29T11:15:15.829Z,1.74
2022-11-29T11:17:56.414Z,1.51
2022-11-29T11:20:25.670Z,1.95
2022-11-29T11:22:59.389Z,1.97
2022-11-29T11:25:31.419Z,1.66
2022-11-29T11:28:14.547Z,1.86
2022-11-29T11:30:52.414Z,1.58
2022-11-29T11:33:25.287Z,1.51
2022-11-29T11:36:08.729Z,1.77
2022-11-29T11:38:40.087Z,1.61
2022-11-29T11:41:19.049Z,1.56
2022-11-29T11:43:59.131Z,1.66
2022-11-29T11:46:48.821Z,1.51
2022-11-29T11:49:29.569Z,1.64
2022-11-29T11:51:58.528Z,1.47
2022-11-29T11:54:26.568Z,1.52
2022-11-29T11:56:53.953Z,1.64
2022-11-29T11:59:26.753Z,1.53
2022-11-29T12:01:53.913Z,1.78
2022-11-29T12:04:27.992Z,1.52
2022-11-29T12:06:59.933Z,1.21
2022-11-29T12:09:35.334Z,1.10
2022-11-29T12:12:13.962Z,0.79
2022-11-29T12:14:54.721Z,0.93
2022-11-29T12:17:31.888Z,0.81
2022-11-29T12:20:15.273Z,0.87
2022-11-29T12:22:59.188Z,1.02
2022-11-29T12:25:34.375Z,0.89
2022-11-29T12:28:01.694Z,0.94
2022-11-29T12:30:33.375Z,1.01
2022-11-29T12:33:22.549Z,0.94
2022-11-29T12:36:10.887Z,0.69
2022-11-29T12:38:55.979Z,0.64
2022-11-29T12:41:37.086Z,1.10
2022-11-29T12:44:20.312Z,0.90
2022-11-29T12:47:34.222Z,0.78
2022-11-29T12:49:59.119Z,0.77
2022-11-29T12:52:35.378Z,0.90
2022-11-29T12:55:17.716Z,0.84
2022-11-29T12:57:56.799Z,0.88
2022-11-29T13:00:29.252Z,1.01
2022-11-29T13:03:08.602Z,1.08
2022-11-29T13:05:49.212Z,1.20
2022-11-29T13:08:37.495Z,1.10
2022-11-29T13:11:17.194Z,0.93
2022-11-29T13:13:50.033Z,0.95
2022-11-29T13:16:35.150Z,1.02
2022-11-29T13:19:11.317Z,0.95
2022-11-29T13:21:49.349Z,1.02
2022-11-29T13:24:25.776Z,1.33
2022-11-29T13:26:55.431Z,1.19
2022-11-29T13:29:23.298Z,1.16
2022-11-29T13:31:51.875Z,1.27
2022-11-29T13:34:30.456Z,1.50
2022-11-29T13:37:07.994Z,1.72
2022-11-29T13:39:58.562Z,1.34
2022-11-29T13:42:39.075Z,1.49
2022-11-29T13:45:21.216Z,1.45
2022-11-29T13:47:49.275Z,1.10
2022-11-29T13:50:39.675Z,1.40
2022-11-29T13:53:14.974Z,1.20
2022-11-29T13:55:51.275Z,1.11
2022-11-29T13:58:39.367Z,1.05
2022-11-29T14:01:09.715Z,1.07
2022-11-29T14:03:39.599Z,1.05
2022-11-29T14:06:16.276Z,1.06
2022-11-29T14:09:30.585Z,1.53
2022-11-29T14:12:17.973Z,1.24
2022-11-29T14:14:52.495Z,1.09
2022-11-29T14:17:45.553Z,1.12
2022-11-29T14:20:52.039Z,1.23
2022-11-29T14:23:36.933Z,1.09
2022-11-29T14:26:29.919Z,1.23
2022-11-29T14:28:58.636Z,1.18
2022-11-29T14:31:48.675Z,1.44
2022-11-29T14:34:48.031Z,1.86
2022-11-29T14:37:44.593Z,1.36
2022-11-29T14:40:27.584Z,1.55
2022-11-29T14:42:55.185Z,1.29
2022-11-29T14:45:26.971Z,1.17
2022-11-29T14:47:55.267Z,1.24
2022-11-29T14:50:33.581Z,1.52
2022-11-29T14:53:02.603Z,1.40
2022-11-29T14:55:35.725Z,1.43
2022-11-29T14:58:20.701Z,1.24
2022-11-29T15:01:10.632Z,1.38
2022-11-29T15:03:47.508Z,1.62
2022-11-29T15:06:28.161Z,1.48
2022-11-29T15:09:02.978Z,1.31
2022-11-29T15:11:50.458Z,1.30
2022-11-29T15:14:31.167Z,1.39
2022-11-29T15:17:14.481Z,1.66
2022-11-29T15:20:03.291Z,1.44
2022-11-29T15:22:48.148Z,1.55
2022-11-29T15:25:20.582Z,1.27
2022-11-29T15:27:54.677Z,1.36
2022-11-29T15:30:29.842Z,1.40
2022-11-29T15:32:58.281Z,1.42
2022-11-29T15:35:25.806Z,1.56
2022-11-29T15:37:54.883Z,1.38
2022-11-29T15:40:24.690Z,1.17
2022-11-29T15:43:00.865Z,1.13
2022-11-29T15:45:31.909Z,1.38
2022-11-29T15:48:14.221Z,1.53
2022-11-29T15:50:49.262Z,1.17
2022-11-29T15:53:23.622Z,1.20
2022-11-29T15:55:55.201Z,1.35
2022-11-29T15:58:24.923Z,1.18
2022-11-29T16:00:54.762Z,1.06
2022-11-29T16:03:28.443Z,1.43
2022-11-29T16:06:03.829Z,1.46
2022-11-29T16:08:40.381Z,1.49
2022-11-29T16:11:16.121Z,1.62
2022-11-29T16:14:14.046Z,1.47
2022-11-29T16:16:44.943Z,1.80
2022-11-29T16:19:24.823Z,2.30
2022-11-29T16:22:13.181Z,2.16
2022-11-29T16:24:46.809Z,1.70
2022-11-29T16:27:15.304Z,1.90
2022-11-29T16:29:46.002Z,2.39
2022-11-29T16:32:20.542Z,2.03
2022-11-29T16:34:48.021Z,2.06
2022-11-29T16:37:20.221Z,2.43
2022-11-29T16:39:51.083Z,2.13
2022-11-29T16:42:25.270Z,2.23
2022-11-29T16:45:26.433Z,2.10
2022-11-29T16:47:54.382Z,1.60
2022-11-29T16:50:22.507Z,1.84
2022-11-29T16:52:56.056Z,2.04
2022-11-29T16:55:24.047Z,2.14
2022-11-29T16:57:51.303Z,2.15
2022-11-29T17:00:32.383Z,2.47
2022-11-29T17:03:00.499Z,2.51
2022-11-29T17:05:27.861Z,2.84
2022-11-29T17:07:55.593Z,3.05
2022-11-29T17:10:24.924Z,2.82
2022-11-29T17:12:52.642Z,2.79
2022-11-29T17:15:19.880Z,2.84
2022-11-29T17:17:56.167Z,3.48
2022-11-29T17:20:23.782Z,3.35
2022-11-29T17:22:50.981Z,3.37
2022-11-29T17:25:18.384Z,3.45
2022-11-29T17:27:51.582Z,3.41
2022-11-29T17:30:19.622Z,3.59
2022-11-29T17:32:47.183Z,3.41
2022-11-29T17:35:15.961Z,3.34
2022-11-29T17:37:43.482Z,3.37
2022-11-29T17:40:15.541Z,3.61
2022-11-29T17:42:44.181Z,3.60
2022-11-29T17:45:11.642Z,3.24
2022-11-29T17:47:40.400Z,3.02
2022-11-29T17:50:08.481Z,3.66
2022-11-29T17:52:42.182Z,3.52
2022-11-29T17:55:10.484Z,3.27
2022-11-29T17:57:37.762Z,3.68
2022-11-29T18:00:06.301Z,3.91
2022-11-29T18:02:33.581Z,3.75
2022-11-29T18:05:01.121Z,3.99
2022-11-29T18:07:28.305Z,4.46
2022-11-29T18:09:56.963Z,4.87
2022-11-29T18:12:26.524Z,4.52
2022-11-29T18:14:54.160Z,4.77
2022-11-29T18:17:21.403Z,5.31
2022-11-29T18:19:49.099Z,5.07
2022-11-29T18:22:16.249Z,5.54
2022-11-29T18:24:43.401Z,5.52
2022-11-29T18:27:11.910Z,5.30
2022-11-29T18:29:39.443Z,5.76
2022-11-29T18:32:06.723Z,5.58
2022-11-29T18:34:33.973Z,5.46
2022-11-29T18:37:01.252Z,5.23
2022-11-29T18:39:28.902Z,5.53
2022-11-29T18:41:56.381Z,5.20
2022-11-29T18:44:24.960Z,5.33
2022-11-29T18:46:52.061Z,5.26
2022-11-29T18:49:19.282Z,5.43
2022-11-29T18:51:48.321Z,4.94
2022-11-29T18:54:17.921Z,5.43
2022-11-29T18:56:46.625Z,5.48
2022-11-29T18:59:16.010Z,5.13
2022-11-29T19:01:47.105Z,5.50
2022-11-29T19:04:16.641Z,5.41
2022-11-29T19:06:44.823Z,5.49
2022-11-29T19:09:15.244Z,5.49
2022-11-29T19:11:42.613Z,5.35
2022-11-29T19:14:12.104Z,5.15
2022-11-29T19:16:42.424Z,5.19
2022-11-29T19:19:13.244Z,5.06
2022-11-29T19:21:41.433Z,5.07
2022-11-29T19:24:13.104Z,5.35
2022-11-29T19:26:44.753Z,5.22
2022-11-29T19:29:13.504Z,5.04
2022-11-29T19:31:41.175Z,4.64
2022-11-29T19:34:12.303Z,4.68
2022-11-29T19:36:40.644Z,4.61
2022-11-29T19:39:11.749Z,4.65
2022-11-29T19:41:39.041Z,4.88
2022-11-29T19:44:09.508Z,4.90
2022-11-29T19:46:40.196Z,4.98
2022-11-29T19:49:10.803Z,5.17
2022-11-29T19:51:38.603Z,5.16
2022-11-29T19:54:08.381Z,5.29
2022-11-29T19:56:51.432Z,5.21
2022-11-29T19:59:18.520Z,5.00
2022-11-29T20:01:45.728Z,5.51
2022-11-29T20:04:16.788Z,5.47
2022-11-29T20:06:44.585Z,5.35
2022-11-29T20:09:14.083Z,5.02
2022-11-29T20:11:41.180Z,5.55
2022-11-29T20:14:11.042Z,5.84
2022-11-29T20:16:38.864Z,5.88
2022-11-29T20:19:09.901Z,5.62
2022-11-29T20:21:43.151Z,5.95
2022-11-29T20:24:11.200Z,6.05
2022-11-29T20:26:40.101Z,6.09
2022-11-29T20:29:08.642Z,6.59
2022-11-29T20:31:37.820Z,6.27
2022-11-29T20:34:06.506Z,6.36
2022-11-29T20:36:47.581Z,6.29
2022-11-29T20:39:31.280Z,6.55
2022-11-29T20:42:20.122Z,6.72
2022-11-29T20:44:53.841Z,6.61
2022-11-29T20:47:24.563Z,6.52
2022-11-29T20:49:52.135Z,6.77
2022-11-29T20:52:34.003Z,6.67
2022-11-29T20:55:01.159Z,3.65
2022-11-29T20:57:28.380Z,4.13
2022-11-29T20:59:55.542Z,4.14
2022-11-29T21:02:23.582Z,5.49
2022-11-29T21:04:51.520Z,5.92
2022-11-29T21:07:20.096Z,6.42
2022-11-29T21:09:47.326Z,6.18
2022-11-29T21:12:15.631Z,6.36
2022-11-29T21:14:43.599Z,6.60
2022-11-29T21:17:11.541Z,6.63
2022-11-29T21:19:39.751Z,6.39
2022-11-29T21:22:18.983Z,6.50
2022-11-29T21:25:02.862Z,6.47
2022-11-29T21:27:33.243Z,6.52
2022-11-29T21:30:01.943Z,6.56
2022-11-29T21:32:30.761Z,6.47
2022-11-29T21:34:58.421Z,6.40
2022-11-29T21:37:29.322Z,6.23
2022-11-29T21:39:58.286Z,6.50
2022-11-29T21:42:25.362Z,6.24
2022-11-29T21:44:52.484Z,5.87
2022-11-29T21:47:19.846Z,5.92
2022-11-29T21:49:47.003Z,5.53
2022-11-29T21:52:17.799Z,5.96
2022-11-29T21:54:49.431Z,5.67
2022-11-29T21:57:18.181Z,5.49
2022-11-29T21:59:45.329Z,5.75
2022-11-29T22:02:12.651Z,5.97
2022-11-29T22:04:39.842Z,6.42
2022-11-29T22:07:06.845Z,5.72
2022-11-29T22:09:34.064Z,6.01
2022-11-29T22:12:10.344Z,6.49
2022-11-29T22:14:48.464Z,6.39
2022-11-29T22:17:15.903Z,6.17
2022-11-29T22:19:43.020Z,6.38
2022-11-29T22:22:10.181Z,6.49
2022-11-29T22:24:37.842Z,6.48
2022-11-29T22:27:04.981Z,6.43
2022-11-29T22:29:32.023Z,6.52
2022-11-29T22:32:00.640Z,6.79
2022-11-29T22:34:27.945Z,6.21
2022-11-29T22:36:55.122Z,6.14
2022-11-29T22:39:22.242Z,5.79
2022-11-29T22:41:53.862Z,5.97
2022-11-29T22:44:22.756Z,6.18
2022-11-29T22:46:51.010Z,6.80
2022-11-29T22:49:19.523Z,6.73
2022-11-29T22:51:47.382Z,6.19
2022-11-29T22:54:14.581Z,5.74
2022-11-29T22:56:43.622Z,5.54
2022-11-29T22:59:11.144Z,5.78
2022-11-29T23:01:40.836Z,5.92
2022-11-29T23:04:10.237Z,5.88
2022-11-29T23:06:43.519Z,6.05
2022-11-29T23:09:13.059Z,6.53
2022-11-29T23:11:40.217Z,6.14
2022-11-29T23:14:07.303Z,6.48
2022-11-29T23:16:34.629Z,6.45
2022-11-29T23:19:02.813Z,6.36
2022-11-29T23:21:31.699Z,6.00
2022-11-29T23:24:00.718Z,5.92
2022-11-29T23:26:30.347Z,6.18
2022-11-29T23:28:58.809Z,6.35
2022-11-29T23:31:26.476Z,5.79
2022-11-29T23:33:54.217Z,5.77
2022-11-29T23:36:21.597Z,5.66
2022-11-29T23:38:50.737Z,5.82
2022-11-29T23:41:20.416Z,5.54
2022-11-29T23:43:49.305Z,5.60
2022-11-29T23:46:19.134Z,5.09
2022-11-29T23:48:46.497Z,4.99
2022-11-29T23:51:14.178Z,5.13
2022-11-29T23:53:41.656Z,4.77
2022-11-29T23:56:13.857Z,4.92
2022-11-29T23:58:43.399Z,4.77
